Startpagina
METAR-TAF:

METAR-TAF

Vliegvelden :

Longyearbyen, Noorwegen

Luchthaven Svalbard Longyear

breedte: 78-15N, lengte: 015-28E, hoogte: 2 m

Actueel weer

Dit bericht is 15 minuten geleden gemaakt, om 11:50 UTC
Wind 11 kt uit het oostnoordoosten met uitschieters tot 22 kt
Temperatuur -5°C
Vochtigheid 58%
Druk 1024 hPa
Zicht 10 km of meer
Weinig wolken op 2500 ft
Gebroken wolken op 4000 ft

METAR: ENSB 191150Z 07011G22KT 9999 FEW025 BKN040 M05/M12 Q1024 RMK WIND 1400FT 05012KT

Tijdstip: 13:05 (12:05 UTC)

Verwachting

Verwachting geldig van 19 om 12 UTC tot 20 om 12 UTC
Wind 10 kt uit het oostnoordoosten
Zicht 10 km of meer
Weinig wolken op 1500 ft
Gebroken wolken op 3000 ft
Wijzigt naar
van 19 om 15 UTC tot 19 om 16 UTC
Wind 15 kt uit het oostzuidoosten

TAF: ENSB 1912/2012 06010KT 9999 FEW015 BKN030 BECMG 1915/1916 12015KT

Waarnemingen en weersverwachtingen van meer dan 4000 vliegvelden (METAR en TAF).

De beschikbare stations zijn de gele en rode punten op de kaart.

Ga met uw muis naar het station om de naam te zien.

Klik dan om waarnemingen en weersverwachtingen te zien.

kaart wijzigen: klik op de groene knoppen met een zwart kruis om in te zoomen, op de groene knop met een streepje om uit te zoomen of op de groene pijlen voor aangrenzende kaarten.


METAR-TAF: